San Roque, Spain
Current Conditions -  °F | °C
As of 11:30 PM on Monday 22 Dec 2014 (Local Time) from LEAG Reporting Station
Few Clouds Few Clouds  
Wind Chill: 61°   Ceiling: Unl
Heat Index: 61°   Visibility: 6mi
Dew Point: 50°   Wind: 16mph
Humidity: 68%   Direction: 100°E
Pressure: 30.39"   Gusts: NA
Location:  36.21°N, 5.38°W
Report Text: LEAG 222230Z AUTO 10014KT 9999 FEW031 16/10 Q1029
Loading
Personal Weather Stations






























Interactive Weather Map New forecast layout! Learn more

10-Day Weather Forecast

Advertisements
Track Severe Weather on mobile